createdAt,value
2019-04-05T00:04:53.422Z,9.10
2019-04-05T00:14:58.723Z,9.00
2019-04-05T00:25:04.223Z,9.50
2019-04-05T00:35:09.508Z,8.80
2019-04-05T00:45:27.124Z,8.70
2019-04-05T00:55:21.884Z,8.60
2019-04-05T01:05:27.266Z,8.60
2019-04-05T01:15:40.701Z,8.50
2019-04-05T01:25:40.312Z,9.50
2019-04-05T01:35:45.544Z,8.30
2019-04-05T01:45:53.860Z,8.30
2019-04-05T01:55:57.825Z,8.20
2019-04-05T02:06:03.246Z,8.20
2019-04-05T02:16:08.627Z,8.30
2019-04-05T02:26:13.842Z,8.30
2019-04-05T02:36:19.130Z,8.30
2019-04-05T02:46:26.220Z,8.20
2019-04-05T02:56:32.151Z,7.20
2019-04-05T03:06:37.791Z,7.90
2019-04-05T03:16:46.313Z,7.50
2019-04-05T03:27:02.536Z,7.70
2019-04-05T03:37:08.211Z,7.60
2019-04-05T03:47:13.610Z,7.50
2019-04-05T03:57:19.091Z,7.40
2019-04-05T04:07:24.467Z,7.40
2019-04-05T04:17:29.728Z,7.40
2019-04-05T04:27:35.152Z,7.40
2019-04-05T04:37:40.656Z,7.60
2019-04-05T04:47:46.544Z,8.40
2019-04-05T04:57:51.922Z,9.40
2019-04-05T05:07:57.839Z,10.40
2019-04-05T05:18:03.291Z,11.30
2019-04-05T05:28:08.783Z,12.30
2019-04-05T05:38:14.521Z,12.70
2019-04-05T05:48:20.389Z,14.10
2019-04-05T05:58:26.434Z,14.40
2019-04-05T06:08:31.843Z,14.60
2019-04-05T06:18:37.170Z,15.20
2019-04-05T06:28:42.690Z,15.80
2019-04-05T06:38:48.138Z,16.30
2019-04-05T06:48:53.529Z,16.70
2019-04-05T06:58:58.942Z,16.50
2019-04-05T07:09:06.190Z,16.40
2019-04-05T07:19:11.509Z,16.10
2019-04-05T07:29:16.844Z,16.50
2019-04-05T07:39:22.232Z,17.10
2019-04-05T07:49:27.528Z,17.20
2019-04-05T07:59:32.873Z,17.10
2019-04-05T08:09:38.910Z,16.80
2019-04-05T08:19:44.578Z,16.60
2019-04-05T08:29:50.148Z,17.10
2019-04-05T08:39:55.542Z,17.30
2019-04-05T08:50:00.896Z,17.60
2019-04-05T09:00:06.735Z,17.60
2019-04-05T09:10:12.047Z,17.50
2019-04-05T09:20:17.446Z,17.30
2019-04-05T09:30:22.934Z,17.10
2019-04-05T09:40:28.796Z,17.00
2019-04-05T09:50:34.218Z,16.90
2019-04-05T10:00:39.935Z,16.80
2019-04-05T10:10:45.283Z,17.00
2019-04-05T10:20:50.711Z,17.10
2019-04-05T10:30:56.184Z,17.20
2019-04-05T10:41:01.555Z,17.30
2019-04-05T10:51:06.995Z,17.50
2019-04-05T11:01:12.417Z,17.60
2019-04-05T11:11:17.977Z,17.60
2019-04-05T11:21:23.397Z,17.80
2019-04-05T11:31:29.035Z,18.00
2019-04-05T11:41:35.393Z,18.10
2019-04-05T11:51:43.224Z,18.30
2019-04-05T12:02:14.752Z,18.40
2019-04-05T12:12:20.603Z,18.40
2019-04-05T12:22:27.585Z,18.50
2019-04-05T12:32:38.361Z,17.90
2019-04-05T12:42:42.646Z,18.70
2019-04-05T12:52:47.209Z,18.60
2019-04-05T13:02:52.496Z,18.70
2019-04-05T13:12:58.131Z,18.70
2019-04-05T13:23:06.484Z,18.80
2019-04-05T13:33:10.467Z,18.90
2019-04-05T13:43:17.811Z,18.90
2019-04-05T13:53:23.495Z,19.00
2019-04-05T14:03:29.144Z,19.00
2019-04-05T14:13:34.554Z,19.00
2019-04-05T14:23:40.028Z,18.90
2019-04-05T14:33:45.496Z,18.80
2019-04-05T14:43:51.151Z,18.70
2019-04-05T14:53:56.566Z,18.60
2019-04-05T15:04:02.050Z,18.50
2019-04-05T15:14:07.563Z,18.40
2019-04-05T15:24:15.992Z,18.20
2019-04-05T15:34:20.360Z,18.20
2019-04-05T15:44:25.882Z,18.00
2019-04-05T15:54:33.161Z,17.80
2019-04-05T16:04:38.536Z,17.60
2019-04-05T16:14:44.046Z,17.40
2019-04-05T16:24:50.927Z,17.20
2019-04-05T16:34:56.593Z,16.90
2019-04-05T16:45:02.001Z,16.60
2019-04-05T16:55:07.762Z,16.30
2019-04-05T17:05:16.365Z,16.10
2019-04-05T17:15:21.795Z,15.80
2019-04-05T17:25:27.750Z,15.60
2019-04-05T17:35:33.259Z,15.40
2019-04-05T17:45:38.595Z,15.20
2019-04-05T17:55:43.988Z,15.00
2019-04-05T18:05:49.359Z,14.80
2019-04-05T18:15:54.825Z,14.60
2019-04-05T18:26:00.343Z,14.40
2019-04-05T18:36:05.768Z,14.20
2019-04-05T18:46:11.090Z,14.00
2019-04-05T18:56:16.523Z,13.80
2019-04-05T19:06:21.823Z,13.70
2019-04-05T19:16:27.276Z,13.60
2019-04-05T19:26:32.881Z,13.50
2019-04-05T19:56:52.592Z,12.90
2019-04-05T20:06:58.902Z,12.70
2019-04-05T20:17:05.875Z,12.50
2019-04-05T20:27:11.246Z,12.30
2019-04-05T20:37:16.534Z,12.20
2019-04-05T20:47:23.034Z,12.10
2019-04-05T20:57:28.402Z,12.00
2019-04-05T21:07:33.874Z,11.90
2019-04-05T21:17:39.299Z,11.80
2019-04-05T21:27:44.731Z,11.70
2019-04-05T21:37:50.280Z,11.60
2019-04-05T21:47:55.614Z,11.50
2019-04-05T21:58:01.060Z,11.40
2019-04-05T22:08:06.370Z,11.20
2019-04-05T22:18:11.884Z,11.00
2019-04-05T22:28:17.173Z,10.90
2019-04-05T22:38:22.931Z,10.80
2019-04-05T22:48:28.330Z,10.70
2019-04-05T22:58:33.650Z,10.60
2019-04-05T23:08:38.967Z,10.60
2019-04-05T23:18:44.328Z,10.50
2019-04-05T23:28:49.747Z,11.10
2019-04-05T23:38:55.046Z,10.30
2019-04-05T23:49:00.421Z,10.20
2019-04-05T23:59:05.813Z,10.20
